FRSO2: Muddy Boggy Cr, Farris, OK

Data processed at Wed May 22 2019 23:50


All information presented herein is the property of the government of the United States of America and may be revised or deleted at any time without prior notice.
Dissemination of this information without the expressed written consent of the Public Affairs Office, Tulsa District U.S. Army Corps of Engineers is strictly prohibited.
These data are gathered electronically and, as presented, have not undergone any form of quality control. These data are not guaranteed to be valid or correct.
Go to home page.
Go to station list.
Go to home page.

Upstream stations:

Downstream station:
Previous Day
Next Day
Current Day
    
SHEF ID:       FRSO2     Muddy Boggy Creek near Farris, O
STATION TYPE:  
Regulating: Stage =    43.00, Flow =    20800

               PRECIP PRECIP(A)     STAGE  RIV-FLOW  BAT-LOAD
                   in        in        ft       cfs      volt
              Ccp-Rev   Ccp-Rev   Ccp-Rev   Ccp-Rev   Ccp-Rev
(US/Central)
05/22 00:00      0.00      ----     21.74      3420     11.86
05/22 01:00      0.00      ----     21.74      3420     11.86
05/22 02:00      0.00      ----     21.78      3440     11.77
05/22 03:00      0.00      ----     21.85      3470     11.77
05/22 04:00      0.00      ----     21.96      3520     11.77
05/22 05:00      0.00      ----     22.13      3590     11.77
05/22 06:00      0.00      ----     22.34      3680     11.77
05/22 07:00      0.00      ----     22.55      3770     11.77
05/22 08:00      0.00      ----     22.80      3880     11.77
05/22 09:00      0.00      ----     23.06      4000     11.77
05/22 10:00      0.00      ----     23.33      4120     11.86
05/22 11:00      0.00      ----     23.56      4230     11.86
05/22 12:00      0.00      ----     23.79      4340     12.01
05/22 13:00      0.00      ----     24.02      4450     12.01
05/22 14:00      0.00      ----     24.18      4520     12.01
05/22 15:00      0.00      ----     24.42      4640     12.01
05/22 16:00      0.00      ----     24.58      4720     12.01
05/22 17:00      0.00      ----     24.72      4790     12.01
05/22 18:00      0.00      ----     24.86      4860     12.01
05/22 19:00      0.00      ----     24.97      4910     12.01
05/22 20:00      0.00      ----     25.09      4970     12.01
05/22 21:00      0.00      ----     25.17      5010     11.93
05/22 22:00      0.00      ----     25.24      5050     11.93
05/22 23:00      0.00      ----     25.28      5070     11.93